sensor_id;sensor_type;location;lat;lon;timestamp;pressure;altitude;pressure_sealevel;temperature;humidity
64544;BME280;50936;51.660;5.616;2023-04-28T00:02:02;100984.19;;;7.85;100.00
64544;BME280;50936;51.660;5.616;2023-04-28T00:04:29;100971.19;;;7.78;100.00
64544;BME280;50936;51.660;5.616;2023-04-28T00:06:57;100973.44;;;7.69;100.00
64544;BME280;50936;51.660;5.616;2023-04-28T00:09:23;100973.63;;;7.66;100.00
64544;BME280;50936;51.660;5.616;2023-04-28T00:11:50;100968.59;;;7.60;100.00
64544;BME280;50936;51.660;5.616;2023-04-28T00:14:17;100961.47;;;7.59;100.00
64544;BME280;50936;51.660;5.616;2023-04-28T00:16:44;100971.97;;;7.64;100.00
64544;BME280;50936;51.660;5.616;2023-04-28T00:19:12;100968.06;;;7.69;100.00
64544;BME280;50936;51.660;5.616;2023-04-28T00:21:39;100968.06;;;7.69;100.00
64544;BME280;50936;51.660;5.616;2023-04-28T00:24:06;100975.69;;;7.61;100.00
64544;BME280;50936;51.660;5.616;2023-04-28T00:26:33;100968.91;;;7.54;100.00
64544;BME280;50936;51.660;5.616;2023-04-28T00:29:00;100958.66;;;7.45;100.00
64544;BME280;50936;51.660;5.616;2023-04-28T00:31:26;100955.53;;;7.37;100.00
64544;BME280;50936;51.660;5.616;2023-04-28T00:33:53;100948.56;;;7.32;100.00
64544;BME280;50936;51.660;5.616;2023-04-28T00:36:20;100947.00;;;7.28;100.00
64544;BME280;50936;51.660;5.616;2023-04-28T00:38:47;100943.38;;;7.29;100.00
64544;BME280;50936;51.660;5.616;2023-04-28T00:41:14;100943.38;;;7.29;100.00
64544;BME280;50936;51.660;5.616;2023-04-28T00:43:45;100936.19;;;7.30;100.00
64544;BME280;50936;51.660;5.616;2023-04-28T00:46:19;100934.63;;;7.26;100.00
64544;BME280;50936;51.660;5.616;2023-04-28T00:48:52;100941.34;;;7.17;100.00
64544;BME280;50936;51.660;5.616;2023-04-28T00:51:19;100942.47;;;7.13;100.00
64544;BME280;50936;51.660;5.616;2023-04-28T00:53:47;100933.63;;;7.11;100.00
64544;BME280;50936;51.660;5.616;2023-04-28T00:56:14;100926.66;;;7.07;100.00
64544;BME280;50936;51.660;5.616;2023-04-28T00:58:41;100928.56;;;7.05;100.00
64544;BME280;50936;51.660;5.616;2023-04-28T01:01:09;100925.09;;;7.03;100.00
64544;BME280;50936;51.660;5.616;2023-04-28T01:03:38;100916.09;;;7.04;100.00
64544;BME280;50936;51.660;5.616;2023-04-28T01:06:08;100903.63;;;7.03;100.00
64544;BME280;50936;51.660;5.616;2023-04-28T01:08:37;100896.69;;;6.99;100.00
64544;BME280;50936;51.660;5.616;2023-04-28T01:11:12;100909.31;;;6.97;100.00
64544;BME280;50936;51.660;5.616;2023-04-28T01:13:58;100908.53;;;6.94;100.00
64544;BME280;50936;51.660;5.616;2023-04-28T01:16:28;100914.69;;;6.97;100.00
64544;BME280;50936;51.660;5.616;2023-04-28T01:18:59;100903.88;;;6.98;100.00
64544;BME280;50936;51.660;5.616;2023-04-28T01:21:29;100899.28;;;7.00;100.00
64544;BME280;50936;51.660;5.616;2023-04-28T01:24:04;100895.56;;;7.03;100.00
64544;BME280;50936;51.660;5.616;2023-04-28T01:26:32;100886.38;;;7.07;100.00
64544;BME280;50936;51.660;5.616;2023-04-28T01:29:00;100883.38;;;7.13;100.00
64544;BME280;50936;51.660;5.616;2023-04-28T01:31:27;100886.78;;;7.17;100.00
64544;BME280;50936;51.660;5.616;2023-04-28T01:33:56;100877.50;;;7.22;100.00
64544;BME280;50936;51.660;5.616;2023-04-28T01:36:24;100876.22;;;7.29;100.00
64544;BME280;50936;51.660;5.616;2023-04-28T01:38:53;100868.66;;;7.36;100.00
64544;BME280;50936;51.660;5.616;2023-04-28T01:41:20;100873.78;;;7.41;100.00
64544;BME280;50936;51.660;5.616;2023-04-28T01:43:48;100876.31;;;7.44;100.00
64544;BME280;50936;51.660;5.616;2023-04-28T01:46:14;100862.69;;;7.47;100.00
64544;BME280;50936;51.660;5.616;2023-04-28T01:48:41;100866.97;;;7.51;100.00
64544;BME280;50936;51.660;5.616;2023-04-28T01:51:08;100845.47;;;7.51;100.00
64544;BME280;50936;51.660;5.616;2023-04-28T01:53:37;100847.19;;;7.52;100.00
64544;BME280;50936;51.660;5.616;2023-04-28T01:56:04;100843.56;;;7.53;100.00
64544;BME280;50936;51.660;5.616;2023-04-28T01:58:31;100846.94;;;7.57;100.00
64544;BME280;50936;51.660;5.616;2023-04-28T02:00:57;100850.47;;;7.57;100.00
64544;BME280;50936;51.660;5.616;2023-04-28T02:03:25;100839.56;;;7.60;100.00
64544;BME280;50936;51.660;5.616;2023-04-28T02:05:53;100834.00;;;7.63;100.00
64544;BME280;50936;51.660;5.616;2023-04-28T02:08:20;100827.59;;;7.66;100.00
64544;BME280;50936;51.660;5.616;2023-04-28T02:10:47;100828.28;;;7.69;100.00
64544;BME280;50936;51.660;5.616;2023-04-28T02:13:14;100830.00;;;7.70;100.00
64544;BME280;50936;51.660;5.616;2023-04-28T02:15:42;100834.16;;;7.76;100.00
64544;BME280;50936;51.660;5.616;2023-04-28T02:18:11;100838.50;;;7.79;100.00
64544;BME280;50936;51.660;5.616;2023-04-28T02:20:45;100835.91;;;7.77;100.00
64544;BME280;50936;51.660;5.616;2023-04-28T02:23:12;100840.59;;;7.74;100.00
64544;BME280;50936;51.660;5.616;2023-04-28T02:25:39;100829.84;;;7.74;100.00
64544;BME280;50936;51.660;5.616;2023-04-28T02:28:05;100822.53;;;7.76;100.00
64544;BME280;50936;51.660;5.616;2023-04-28T02:30:33;100823.41;;;7.76;100.00
64544;BME280;50936;51.660;5.616;2023-04-28T02:33:00;100819.69;;;7.79;100.00
64544;BME280;50936;51.660;5.616;2023-04-28T02:35:27;100816.78;;;7.82;100.00
64544;BME280;50936;51.660;5.616;2023-04-28T02:37:54;100809.50;;;7.84;100.00
64544;BME280;50936;51.660;5.616;2023-04-28T02:40:21;100797.63;;;7.88;100.00
64544;BME280;50936;51.660;5.616;2023-04-28T02:42:48;100780.53;;;7.89;100.00
64544;BME280;50936;51.660;5.616;2023-04-28T02:45:15;100774.97;;;7.92;100.00
64544;BME280;50936;51.660;5.616;2023-04-28T02:47:42;100773.06;;;7.94;100.00
64544;BME280;50936;51.660;5.616;2023-04-28T02:50:09;100779.41;;;7.93;100.00
64544;BME280;50936;51.660;5.616;2023-04-28T02:52:36;100783.63;;;7.97;100.00
64544;BME280;50936;51.660;5.616;2023-04-28T02:55:04;100769.22;;;7.98;100.00
64544;BME280;50936;51.660;5.616;2023-04-28T02:57:31;100752.13;;;7.99;100.00
64544;BME280;50936;51.660;5.616;2023-04-28T02:59:58;100758.47;;;7.98;100.00
64544;BME280;50936;51.660;5.616;2023-04-28T03:02:30;100751.16;;;8.00;100.00
64544;BME280;50936;51.660;5.616;2023-04-28T03:04:57;100744.91;;;8.00;100.00
64544;BME280;50936;51.660;5.616;2023-04-28T03:07:24;100748.47;;;8.00;100.00
64544;BME280;50936;51.660;5.616;2023-04-28T03:09:52;100742.16;;;8.01;100.00
64544;BME280;50936;51.660;5.616;2023-04-28T03:12:18;100741.97;;;8.04;100.00
64544;BME280;50936;51.660;5.616;2023-04-28T03:14:46;100745.22;;;8.09;100.00
64544;BME280;50936;51.660;5.616;2023-04-28T03:17:14;100750.44;;;8.13;100.00
64544;BME280;50936;51.660;5.616;2023-04-28T03:19:41;100746.78;;;8.14;100.00
64544;BME280;50936;51.660;5.616;2023-04-28T03:22:08;100751.88;;;8.18;100.00
64544;BME280;50936;51.660;5.616;2023-04-28T03:24:36;100748.25;;;8.19;100.00
64544;BME280;50936;51.660;5.616;2023-04-28T03:27:03;100747.94;;;8.24;100.00
64544;BME280;50936;51.660;5.616;2023-04-28T03:29:31;100753.16;;;8.27;100.00
64544;BME280;50936;51.660;5.616;2023-04-28T03:31:58;100752.97;;;8.30;100.00
64544;BME280;50936;51.660;5.616;2023-04-28T03:34:25;100743.91;;;8.31;100.00
64544;BME280;50936;51.660;5.616;2023-04-28T03:36:53;100742.19;;;8.30;100.00
64544;BME280;50936;51.660;5.616;2023-04-28T03:39:26;100734.03;;;8.32;100.00
64544;BME280;50936;51.660;5.616;2023-04-28T03:41:52;100727.78;;;8.31;100.00
64544;BME280;50936;51.660;5.616;2023-04-28T03:44:42;100734.91;;;8.32;100.00
64544;BME280;50936;51.660;5.616;2023-04-28T03:47:09;100731.22;;;8.33;100.00
64544;BME280;50936;51.660;5.616;2023-04-28T03:49:37;100733.75;;;8.36;100.00
64544;BME280;50936;51.660;5.616;2023-04-28T03:52:03;100730.19;;;8.36;100.00
64544;BME280;50936;51.660;5.616;2023-04-28T03:54:31;100722.88;;;8.38;100.00
64544;BME280;50936;51.660;5.616;2023-04-28T03:56:59;100724.81;;;8.36;100.00
64544;BME280;50936;51.660;5.616;2023-04-28T03:59:27;100720.28;;;8.36;100.00
64544;BME280;50936;51.660;5.616;2023-04-28T04:01:54;100716.66;;;8.37;100.00
64544;BME280;50936;51.660;5.616;2023-04-28T04:04:21;100725.56;;;8.38;100.00
64544;BME280;50936;51.660;5.616;2023-04-28T04:06:49;100725.47;;;8.39;100.00
64544;BME280;50936;51.660;5.616;2023-04-28T04:09:16;100720.88;;;8.41;100.00
64544;BME280;50936;51.660;5.616;2023-04-28T04:11:43;100723.41;;;8.44;100.00
64544;BME280;50936;51.660;5.616;2023-04-28T04:14:10;100725.13;;;8.45;100.00
64544;BME280;50936;51.660;5.616;2023-04-28T04:16:37;100716.09;;;8.46;100.00
64544;BME280;50936;51.660;5.616;2023-04-28T04:19:04;100717.06;;;8.45;100.00
64544;BME280;50936;51.660;5.616;2023-04-28T04:21:38;100716.09;;;8.46;100.00
64544;BME280;50936;51.660;5.616;2023-04-28T04:24:06;100715.03;;;8.49;100.00
64544;BME280;50936;51.660;5.616;2023-04-28T04:26:33;100715.03;;;8.49;100.00
64544;BME280;50936;51.660;5.616;2023-04-28T04:29:06;100708.78;;;8.48;100.00
64544;BME280;50936;51.660;5.616;2023-04-28T04:31:33;100708.56;;;8.52;100.00
64544;BME280;50936;51.660;5.616;2023-04-28T04:34:00;100703.19;;;8.52;100.00
64544;BME280;50936;51.660;5.616;2023-04-28T04:36:27;100696.78;;;8.54;100.00
64544;BME280;50936;51.660;5.616;2023-04-28T04:38:54;100696.88;;;8.53;100.00
64544;BME280;50936;51.660;5.616;2023-04-28T04:41:22;100700.31;;;8.55;100.00
64544;BME280;50936;51.660;5.616;2023-04-28T04:43:56;100700.22;;;8.56;100.00
64544;BME280;50936;51.660;5.616;2023-04-28T04:46:28;100697.63;;;8.55;100.00
64544;BME280;50936;51.660;5.616;2023-04-28T04:48:55;100695.69;;;8.57;100.00
64544;BME280;50936;51.660;5.616;2023-04-28T04:51:22;100694.66;;;8.59;100.00
64544;BME280;50936;51.660;5.616;2023-04-28T04:53:49;100698.97;;;8.62;100.00
64544;BME280;50936;51.660;5.616;2023-04-28T04:56:16;100698.97;;;8.62;100.00
64544;BME280;50936;51.660;5.616;2023-04-28T04:58:43;100704.16;;;8.65;100.00
64544;BME280;50936;51.660;5.616;2023-04-28T05:01:50;100695.09;;;8.66;100.00
64544;BME280;50936;51.660;5.616;2023-04-28T05:04:17;100688.69;;;8.69;100.00
64544;BME280;50936;51.660;5.616;2023-04-28T05:06:45;100691.28;;;8.70;100.00
64544;BME280;50936;51.660;5.616;2023-04-28T05:09:12;100682.22;;;8.71;100.00
64544;BME280;50936;51.660;5.616;2023-04-28T05:11:39;100691.06;;;8.73;100.00
64544;BME280;50936;51.660;5.616;2023-04-28T05:14:06;100690.69;;;8.79;100.00
64544;BME280;50936;51.660;5.616;2023-04-28T05:16:33;100694.16;;;8.81;100.00
64544;BME280;50936;51.660;5.616;2023-04-28T05:19:07;100697.41;;;8.86;100.00
64544;BME280;50936;51.660;5.616;2023-04-28T05:21:34;100684.72;;;8.89;100.00
64544;BME280;50936;51.660;5.616;2023-04-28T05:24:02;100677.16;;;8.94;100.00
64544;BME280;50936;51.660;5.616;2023-04-28T05:26:29;100666.19;;;8.97;100.00
64544;BME280;50936;51.660;5.616;2023-04-28T05:29:01;100658.88;;;8.99;100.00
64544;BME280;50936;51.660;5.616;2023-04-28T05:31:28;100652.22;;;9.04;100.00
64544;BME280;50936;51.660;5.616;2023-04-28T05:33:56;100655.19;;;9.14;100.00
64544;BME280;50936;51.660;5.616;2023-04-28T05:36:24;100650.56;;;9.16;100.00
64544;BME280;50936;51.660;5.616;2023-04-28T05:38:52;100653.81;;;9.21;100.00
64544;BME280;50936;51.660;5.616;2023-04-28T05:41:19;100660.72;;;9.25;100.00
64544;BME280;50936;51.660;5.616;2023-04-28T05:43:46;100658.59;;;9.31;100.00
64544;BME280;50936;51.660;5.616;2023-04-28T05:46:17;100670.88;;;9.35;100.00
64544;BME280;50936;51.660;5.616;2023-04-28T05:48:58;100667.88;;;9.39;100.00
64544;BME280;50936;51.660;5.616;2023-04-28T05:51:29;100676.50;;;9.44;100.00
64544;BME280;50936;51.660;5.616;2023-04-28T05:53:56;100670.41;;;9.55;100.00
64544;BME280;50936;51.660;5.616;2023-04-28T05:56:25;100652.84;;;9.62;100.00
64544;BME280;50936;51.660;5.616;2023-04-28T05:58:53;100651.66;;;9.67;100.00
64544;BME280;50936;51.660;5.616;2023-04-28T06:01:21;100664.72;;;9.73;100.00
64544;BME280;50936;51.660;5.616;2023-04-28T06:03:48;100671.28;;;9.81;100.00
64544;BME280;50936;51.660;5.616;2023-04-28T06:06:15;100672.09;;;9.83;100.00
64544;BME280;50936;51.660;5.616;2023-04-28T06:08:42;100672.50;;;9.90;100.00
64544;BME280;50936;51.660;5.616;2023-04-28T06:11:09;100666.91;;;9.93;100.00
64544;BME280;50936;51.660;5.616;2023-04-28T06:13:38;100670.16;;;9.98;100.00
64544;BME280;50936;51.660;5.616;2023-04-28T06:16:05;100675.09;;;10.05;100.00
64544;BME280;50936;51.660;5.616;2023-04-28T06:18:33;100675.56;;;10.11;100.00
64544;BME280;50936;51.660;5.616;2023-04-28T06:21:01;100671.56;;;10.17;100.00
64544;BME280;50936;51.660;5.616;2023-04-28T06:23:29;100680.41;;;10.19;100.00
64544;BME280;50936;51.660;5.616;2023-04-28T06:25:56;100680.94;;;10.24;100.00
64544;BME280;50936;51.660;5.616;2023-04-28T06:28:23;100680.31;;;10.33;100.00
64544;BME280;50936;51.660;5.616;2023-04-28T06:30:51;100673.19;;;10.32;100.00
64544;BME280;50936;51.660;5.616;2023-04-28T06:33:18;100665.09;;;10.32;100.00
64544;BME280;50936;51.660;5.616;2023-04-28T06:35:45;100653.09;;;10.36;100.00
64544;BME280;50936;51.660;5.616;2023-04-28T06:38:14;100658.19;;;10.41;100.00
64544;BME280;50936;51.660;5.616;2023-04-28T06:40:41;100652.00;;;10.52;100.00
64544;BME280;50936;51.660;5.616;2023-04-28T06:43:08;100650.25;;;10.64;100.00
64544;BME280;50936;51.660;5.616;2023-04-28T06:45:43;100656.59;;;10.75;100.00
64544;BME280;50936;51.660;5.616;2023-04-28T06:48:10;100654.81;;;10.87;100.00
64544;BME280;50936;51.660;5.616;2023-04-28T06:50:37;100650.38;;;10.99;100.00
64544;BME280;50936;51.660;5.616;2023-04-28T06:53:06;100662.19;;;11.09;100.00
64544;BME280;50936;51.660;5.616;2023-04-28T06:55:33;100659.31;;;11.24;100.00
64544;BME280;50936;51.660;5.616;2023-04-28T06:58:00;100664.16;;;11.31;100.00
64544;BME280;50936;51.660;5.616;2023-04-28T07:00:27;100667.84;;;11.30;100.00
64544;BME280;50936;51.660;5.616;2023-04-28T07:02:54;100660.81;;;11.28;100.00
64544;BME280;50936;51.660;5.616;2023-04-28T07:05:21;100652.69;;;11.28;100.00
64544;BME280;50936;51.660;5.616;2023-04-28T07:07:48;100654.44;;;11.29;100.00
64544;BME280;50936;51.660;5.616;2023-04-28T07:10:16;100649.16;;;11.27;100.00
64544;BME280;50936;51.660;5.616;2023-04-28T07:12:43;100645.34;;;11.30;100.00
64544;BME280;50936;51.660;5.616;2023-04-28T07:15:10;100647.81;;;11.33;100.00
64544;BME280;50936;51.660;5.616;2023-04-28T07:17:38;100643.44;;;11.43;100.00
64544;BME280;50936;51.660;5.616;2023-04-28T07:20:05;100643.44;;;11.43;100.00
64544;BME280;50936;51.660;5.616;2023-04-28T07:22:33;100641.22;;;11.48;100.00
64544;BME280;50936;51.660;5.616;2023-04-28T07:25:00;100641.00;;;11.51;100.00
64544;BME280;50936;51.660;5.616;2023-04-28T07:27:26;100645.47;;;11.64;100.00
64544;BME280;50936;51.660;5.616;2023-04-28T07:29:53;100639.69;;;11.92;100.00
64544;BME280;50936;51.660;5.616;2023-04-28T07:32:20;100650.53;;;12.15;100.00
64544;BME280;50936;51.660;5.616;2023-04-28T07:34:47;100641.28;;;12.29;100.00
64544;BME280;50936;51.660;5.616;2023-04-28T07:37:15;100627.91;;;12.27;100.00
64544;BME280;50936;51.660;5.616;2023-04-28T07:39:42;100641.78;;;12.23;100.00
64544;BME280;50936;51.660;5.616;2023-04-28T07:42:09;100646.25;;;12.12;100.00
64544;BME280;50936;51.660;5.616;2023-04-28T07:44:36;100647.09;;;12.02;100.00
64544;BME280;50936;51.660;5.616;2023-04-28T07:47:03;100637.72;;;11.94;100.00
64544;BME280;50936;51.660;5.616;2023-04-28T07:49:30;100645.09;;;11.92;100.00
64544;BME280;50936;51.660;5.616;2023-04-28T07:51:57;100642.41;;;11.92;100.00
64544;BME280;50936;51.660;5.616;2023-04-28T07:54:24;100645.78;;;11.83;100.00
64544;BME280;50936;51.660;5.616;2023-04-28T07:56:51;100642.56;;;11.78;100.00
64544;BME280;50936;51.660;5.616;2023-04-28T07:59:18;100647.47;;;11.73;100.00
64544;BME280;50936;51.660;5.616;2023-04-28T08:01:45;100650.41;;;11.70;100.00
64544;BME280;50936;51.660;5.616;2023-04-28T08:04:12;100647.19;;;11.65;100.00
64544;BME280;50936;51.660;5.616;2023-04-28T08:06:39;100654.56;;;11.63;100.00
64544;BME280;50936;51.660;5.616;2023-04-28T08:09:06;100661.19;;;11.59;100.00
64544;BME280;50936;51.660;5.616;2023-04-28T08:11:33;100656.25;;;11.52;100.00
64544;BME280;50936;51.660;5.616;2023-04-28T08:14:00;100668.06;;;11.51;100.00
64544;BME280;50936;51.660;5.616;2023-04-28T08:16:29;100655.25;;;11.53;100.00
64544;BME280;50936;51.660;5.616;2023-04-28T08:18:57;100650.75;;;11.54;100.00
64544;BME280;50936;51.660;5.616;2023-04-28T08:21:25;100649.53;;;11.58;100.00
64544;BME280;50936;51.660;5.616;2023-04-28T08:23:52;100658.50;;;11.59;100.00
64544;BME280;50936;51.660;5.616;2023-04-28T08:26:20;100650.38;;;11.59;100.00
64544;BME280;50936;51.660;5.616;2023-04-28T08:28:47;100644.00;;;11.60;100.00
64544;BME280;50936;51.660;5.616;2023-04-28T08:31:13;100645.47;;;11.64;100.00
64544;BME280;50936;51.660;5.616;2023-04-28T08:33:40;100649.31;;;11.72;100.00
64544;BME280;50936;51.660;5.616;2023-04-28T08:36:10;100654.03;;;11.82;100.00
64544;BME280;50936;51.660;5.616;2023-04-28T08:38:44;100656.88;;;11.91;100.00
64544;BME280;50936;51.660;5.616;2023-04-28T08:41:14;100654.19;;;11.91;100.00
64544;BME280;50936;51.660;5.616;2023-04-28T08:43:41;100660.56;;;11.90;100.00
64544;BME280;50936;51.660;5.616;2023-04-28T08:46:09;100651.59;;;11.90;100.00
64544;BME280;50936;51.660;5.616;2023-04-28T08:48:42;100650.50;;;11.92;100.00
64544;BME280;50936;51.660;5.616;2023-04-28T08:51:14;100656.91;;;12.03;100.00
64544;BME280;50936;51.660;5.616;2023-04-28T08:53:44;100658.75;;;12.02;100.00
64544;BME280;50936;51.660;5.616;2023-04-28T08:56:37;100658.13;;;11.99;100.00
64544;BME280;50936;51.660;5.616;2023-04-28T08:59:04;100654.69;;;11.97;100.00
64544;BME280;50936;51.660;5.616;2023-04-28T09:01:31;100658.25;;;11.97;100.00
64544;BME280;50936;51.660;5.616;2023-04-28T09:04:02;100654.59;;;11.98;100.00
64544;BME280;50936;51.660;5.616;2023-04-28T09:06:37;100653.47;;;12.01;100.00
64544;BME280;50936;51.660;5.616;2023-04-28T09:09:24;100654.47;;;12.11;100.00
64544;BME280;50936;51.660;5.616;2023-04-28T09:11:57;100658.91;;;12.23;100.00
64544;BME280;50936;51.660;5.616;2023-04-28T09:14:27;100659.16;;;12.20;100.00
64544;BME280;50936;51.660;5.616;2023-04-28T09:16:55;100653.47;;;12.23;100.00
64544;BME280;50936;51.660;5.616;2023-04-28T09:19:22;100659.91;;;12.22;100.00
64544;BME280;50936;51.660;5.616;2023-04-28T09:21:54;100663.34;;;12.24;100.00
64544;BME280;50936;51.660;5.616;2023-04-28T09:24:33;100652.75;;;12.21;100.00
64544;BME280;50936;51.660;5.616;2023-04-28T09:27:04;100655.34;;;12.23;100.00
64544;BME280;50936;51.660;5.616;2023-04-28T09:29:51;100653.00;;;12.18;100.00
64544;BME280;50936;51.660;5.616;2023-04-28T09:32:20;100650.16;;;12.20;100.00
64544;BME280;50936;51.660;5.616;2023-04-28T09:34:51;100646.13;;;12.25;100.00
64544;BME280;50936;51.660;5.616;2023-04-28T09:37:23;100648.84;;;12.37;100.00
64544;BME280;50936;51.660;5.616;2023-04-28T09:42:41;100653.72;;;12.65;100.00
64544;BME280;50936;51.660;5.616;2023-04-28T09:45:11;100651.00;;;12.65;100.00
64544;BME280;50936;51.660;5.616;2023-04-28T09:47:44;100647.69;;;12.62;100.00
64544;BME280;50936;51.660;5.616;2023-04-28T09:50:15;100642.53;;;12.59;100.00
64544;BME280;50936;51.660;5.616;2023-04-28T09:52:45;100641.19;;;12.64;100.00
64544;BME280;50936;51.660;5.616;2023-04-28T09:55:23;100641.91;;;12.66;100.00
64544;BME280;50936;51.660;5.616;2023-04-28T09:57:53;100649.03;;;12.67;100.00
64544;BME280;50936;51.660;5.616;2023-04-28T10:00:21;100650.78;;;12.68;100.00
64544;BME280;50936;51.660;5.616;2023-04-28T10:02:49;100653.59;;;12.67;100.00
64544;BME280;50936;51.660;5.616;2023-04-28T10:05:17;100653.25;;;12.71;100.00
64544;BME280;50936;51.660;5.616;2023-04-28T10:07:47;100652.97;;;12.75;100.00
64544;BME280;50936;51.660;5.616;2023-04-28T10:10:15;100653.09;;;12.84;100.00
64544;BME280;50936;51.660;5.616;2023-04-28T10:12:42;100655.16;;;12.92;100.00
64544;BME280;50936;51.660;5.616;2023-04-28T10:15:11;100655.16;;;12.92;100.00
64544;BME280;50936;51.660;5.616;2023-04-28T10:17:38;100653.44;;;12.91;100.00
64544;BME280;50936;51.660;5.616;2023-04-28T10:20:07;100646.81;;;12.95;100.00
64544;BME280;50936;51.660;5.616;2023-04-28T10:23:00;100650.72;;;13.02;100.00
64544;BME280;50936;51.660;5.616;2023-04-28T10:25:55;100650.44;;;13.05;100.00
64544;BME280;50936;51.660;5.616;2023-04-28T10:28:25;100651.53;;;13.14;100.00
64544;BME280;50936;51.660;5.616;2023-04-28T10:31:12;100643.78;;;13.21;100.00
64544;BME280;50936;51.660;5.616;2023-04-28T10:33:41;100643.25;;;13.27;100.00
64544;BME280;50936;51.660;5.616;2023-04-28T10:36:08;100653.25;;;13.26;100.00
64544;BME280;50936;51.660;5.616;2023-04-28T10:39:08;100655.81;;;13.28;100.00
64544;BME280;50936;51.660;5.616;2023-04-28T10:41:37;100650.66;;;13.25;100.00
64544;BME280;50936;51.660;5.616;2023-04-28T10:47:09;100646.00;;;13.16;100.00
64544;BME280;50936;51.660;5.616;2023-04-28T11:00:52;100644.91;;;13.51;100.00
64544;BME280;50936;51.660;5.616;2023-04-28T11:17:06;100648.75;;;13.69;100.00
64544;BME280;50936;51.660;5.616;2023-04-28T11:22:10;100632.91;;;13.95;100.00
64544;BME280;50936;51.660;5.616;2023-04-28T11:24:39;100636.16;;;14.10;100.00
64544;BME280;50936;51.660;5.616;2023-04-28T11:27:06;100634.63;;;14.17;100.00
64544;BME280;50936;51.660;5.616;2023-04-28T11:29:39;100639.06;;;14.18;100.00
64544;BME280;50936;51.660;5.616;2023-04-28T11:32:09;100644.03;;;14.13;100.00
64544;BME280;50936;51.660;5.616;2023-04-28T11:34:36;100635.72;;;14.05;100.00
64544;BME280;50936;51.660;5.616;2023-04-28T11:37:03;100635.84;;;14.03;100.00
64544;BME280;50936;51.660;5.616;2023-04-28T11:39:33;100637.97;;;14.00;100.00
64544;BME280;50936;51.660;5.616;2023-04-28T11:42:02;100635.72;;;14.05;100.00
64544;BME280;50936;51.660;5.616;2023-04-28T11:44:35;100638.13;;;14.08;100.00
64544;BME280;50936;51.660;5.616;2023-04-28T11:47:04;100638.13;;;14.08;100.00
64544;BME280;50936;51.660;5.616;2023-04-28T11:49:43;100641.28;;;14.03;100.00
64544;BME280;50936;51.660;5.616;2023-04-28T11:52:11;100645.38;;;13.98;100.00
64544;BME280;50936;51.660;5.616;2023-04-28T11:54:39;100648.34;;;13.95;100.00
64544;BME280;50936;51.660;5.616;2023-04-28T11:57:19;100649.63;;;13.91;100.00
64544;BME280;50936;51.660;5.616;2023-04-28T11:59:48;100650.91;;;13.86;100.00
64544;BME280;50936;51.660;5.616;2023-04-28T12:02:23;100649.41;;;13.82;100.00
64544;BME280;50936;51.660;5.616;2023-04-28T12:04:54;100649.41;;;13.82;100.00
64544;BME280;50936;51.660;5.616;2023-04-28T12:07:20;100652.84;;;13.84;100.00
64544;BME280;50936;51.660;5.616;2023-04-28T12:12:37;100653.66;;;13.75;100.00
64544;BME280;50936;51.660;5.616;2023-04-28T12:15:17;100655.38;;;13.76;100.00
64544;BME280;50936;51.660;5.616;2023-04-28T12:17:49;100654.13;;;13.80;100.00
64544;BME280;50936;51.660;5.616;2023-04-28T12:20:36;100660.28;;;13.82;100.00
64544;BME280;50936;51.660;5.616;2023-04-28T12:23:05;100656.84;;;13.80;100.00
64544;BME280;50936;51.660;5.616;2023-04-28T12:25:45;100655.63;;;13.73;100.00
64544;BME280;50936;51.660;5.616;2023-04-28T12:28:13;100666.19;;;13.66;100.00
64544;BME280;50936;51.660;5.616;2023-04-28T12:30:40;100673.84;;;13.61;100.00
64544;BME280;50936;51.660;5.616;2023-04-28T12:33:25;100669.81;;;13.56;100.00
64544;BME280;50936;51.660;5.616;2023-04-28T12:35:54;100675.22;;;13.56;100.00
64544;BME280;50936;51.660;5.616;2023-04-28T12:38:23;100671.78;;;13.54;100.00
64544;BME280;50936;51.660;5.616;2023-04-28T12:40:51;100675.47;;;13.53;100.00
64544;BME280;50936;51.660;5.616;2023-04-28T12:43:18;100670.06;;;13.53;100.00
64544;BME280;50936;51.660;5.616;2023-04-28T12:45:52;100681.75;;;13.53;100.00
64544;BME280;50936;51.660;5.616;2023-04-28T12:48:22;100673.75;;;13.52;100.00
64544;BME280;50936;51.660;5.616;2023-04-28T12:50:50;100680.19;;;13.51;100.00
64544;BME280;50936;51.660;5.616;2023-04-28T12:53:17;100675.72;;;13.50;100.00
64544;BME280;50936;51.660;5.616;2023-04-28T12:55:44;100678.13;;;13.43;100.00
64544;BME280;50936;51.660;5.616;2023-04-28T12:58:11;100685.03;;;13.36;100.00
64544;BME280;50936;51.660;5.616;2023-04-28T13:00:38;100675.78;;;13.27;100.00
64544;BME280;50936;51.660;5.616;2023-04-28T13:03:07;100683.97;;;13.16;100.00
64544;BME280;50936;51.660;5.616;2023-04-28T13:05:34;100691.59;;;13.10;100.00
64544;BME280;50936;51.660;5.616;2023-04-28T13:08:01;100688.69;;;13.02;100.00
64544;BME280;50936;51.660;5.616;2023-04-28T13:10:29;100695.19;;;13.00;100.00
64544;BME280;50936;51.660;5.616;2023-04-28T13:12:56;100694.47;;;12.98;100.00
64544;BME280;50936;51.660;5.616;2023-04-28T13:15:23;100687.69;;;12.92;100.00
64544;BME280;50936;51.660;5.616;2023-04-28T13:17:50;100689.44;;;12.93;100.00
64544;BME280;50936;51.660;5.616;2023-04-28T13:20:17;100688.81;;;12.89;100.00
64544;BME280;50936;51.660;5.616;2023-04-28T13:22:44;100694.50;;;12.86;100.00
64544;BME280;50936;51.660;5.616;2023-04-28T13:25:11;100693.03;;;12.82;100.00
64544;BME280;50936;51.660;5.616;2023-04-28T13:27:37;100690.44;;;12.81;100.00
64544;BME280;50936;51.660;5.616;2023-04-28T13:30:07;100678.75;;;12.80;100.00
64544;BME280;50936;51.660;5.616;2023-04-28T13:32:35;100691.91;;;12.85;100.00